sensor_id;sensor_type;location;lat;lon;timestamp;P1;durP1;ratioP1;P2;durP2;ratioP2
74967;SDS011;63523;51.880;12.630;2023-05-07T00:00:37;16.80;;;7.80;;
74967;SDS011;63523;51.880;12.630;2023-05-07T00:03:02;16.20;;;6.90;;
74967;SDS011;63523;51.880;12.630;2023-05-07T00:05:28;13.37;;;6.60;;
74967;SDS011;63523;51.880;12.630;2023-05-07T00:07:53;15.27;;;6.30;;
74967;SDS011;63523;51.880;12.630;2023-05-07T00:10:18;14.50;;;7.60;;
74967;SDS011;63523;51.880;12.630;2023-05-07T00:12:44;16.47;;;7.93;;
74967;SDS011;63523;51.880;12.630;2023-05-07T00:15:09;12.97;;;6.50;;
74967;SDS011;63523;51.880;12.630;2023-05-07T00:17:35;14.23;;;6.77;;
74967;SDS011;63523;51.880;12.630;2023-05-07T00:20:01;14.85;;;6.90;;
74967;SDS011;63523;51.880;12.630;2023-05-07T00:22:28;13.43;;;6.70;;
74967;SDS011;63523;51.880;12.630;2023-05-07T00:24:55;17.15;;;7.45;;
74967;SDS011;63523;51.880;12.630;2023-05-07T00:27:20;15.23;;;6.60;;
74967;SDS011;63523;51.880;12.630;2023-05-07T00:29:45;16.10;;;7.73;;
74967;SDS011;63523;51.880;12.630;2023-05-07T00:32:11;18.60;;;8.07;;
74967;SDS011;63523;51.880;12.630;2023-05-07T00:34:36;18.87;;;8.53;;
74967;SDS011;63523;51.880;12.630;2023-05-07T00:37:01;18.20;;;8.20;;
74967;SDS011;63523;51.880;12.630;2023-05-07T00:39:27;17.13;;;8.00;;
74967;SDS011;63523;51.880;12.630;2023-05-07T00:41:52;18.27;;;8.13;;
74967;SDS011;63523;51.880;12.630;2023-05-07T00:44:17;17.80;;;8.00;;
74967;SDS011;63523;51.880;12.630;2023-05-07T00:46:43;17.88;;;8.18;;
74967;SDS011;63523;51.880;12.630;2023-05-07T00:49:09;18.93;;;8.47;;
74967;SDS011;63523;51.880;12.630;2023-05-07T00:51:35;19.70;;;8.80;;
74967;SDS011;63523;51.880;12.630;2023-05-07T00:54:01;21.00;;;9.37;;
74967;SDS011;63523;51.880;12.630;2023-05-07T00:56:28;17.88;;;8.32;;
74967;SDS011;63523;51.880;12.630;2023-05-07T00:58:53;18.27;;;8.13;;
74967;SDS011;63523;51.880;12.630;2023-05-07T01:01:18;17.20;;;8.23;;
74967;SDS011;63523;51.880;12.630;2023-05-07T01:03:44;17.38;;;8.07;;
74967;SDS011;63523;51.880;12.630;2023-05-07T01:06:10;16.07;;;7.70;;
74967;SDS011;63523;51.880;12.630;2023-05-07T01:08:37;18.23;;;7.93;;
74967;SDS011;63523;51.880;12.630;2023-05-07T01:11:04;16.15;;;7.20;;
74967;SDS011;63523;51.880;12.630;2023-05-07T01:13:31;17.60;;;8.63;;
74967;SDS011;63523;51.880;12.630;2023-05-07T01:15:57;16.20;;;7.93;;
74967;SDS011;63523;51.880;12.630;2023-05-07T01:18:22;16.40;;;8.07;;
74967;SDS011;63523;51.880;12.630;2023-05-07T01:20:48;17.75;;;8.43;;
74967;SDS011;63523;51.880;12.630;2023-05-07T01:23:13;18.30;;;7.93;;
74967;SDS011;63523;51.880;12.630;2023-05-07T01:25:40;16.48;;;7.40;;
74967;SDS011;63523;51.880;12.630;2023-05-07T01:28:05;15.90;;;7.23;;
74967;SDS011;63523;51.880;12.630;2023-05-07T01:30:31;17.80;;;8.43;;
74967;SDS011;63523;51.880;12.630;2023-05-07T01:33:01;17.08;;;7.43;;
74967;SDS011;63523;51.880;12.630;2023-05-07T01:35:34;16.77;;;7.75;;
74967;SDS011;63523;51.880;12.630;2023-05-07T01:38:03;14.82;;;7.22;;
74967;SDS011;63523;51.880;12.630;2023-05-07T01:40:30;14.55;;;7.38;;
74967;SDS011;63523;51.880;12.630;2023-05-07T01:42:56;16.60;;;7.10;;
74967;SDS011;63523;51.880;12.630;2023-05-07T01:45:22;15.43;;;7.07;;
74967;SDS011;63523;51.880;12.630;2023-05-07T01:47:49;14.32;;;6.68;;
74967;SDS011;63523;51.880;12.630;2023-05-07T01:50:15;14.95;;;6.90;;
74967;SDS011;63523;51.880;12.630;2023-05-07T01:52:43;14.15;;;6.43;;
74967;SDS011;63523;51.880;12.630;2023-05-07T01:55:08;13.93;;;6.97;;
74967;SDS011;63523;51.880;12.630;2023-05-07T01:57:34;14.90;;;7.15;;
74967;SDS011;63523;51.880;12.630;2023-05-07T01:59:59;13.17;;;6.43;;
74967;SDS011;63523;51.880;12.630;2023-05-07T02:02:25;13.03;;;6.13;;
74967;SDS011;63523;51.880;12.630;2023-05-07T02:04:50;12.60;;;5.93;;
74967;SDS011;63523;51.880;12.630;2023-05-07T02:07:15;13.93;;;6.40;;
74967;SDS011;63523;51.880;12.630;2023-05-07T02:09:40;13.33;;;6.60;;
74967;SDS011;63523;51.880;12.630;2023-05-07T02:12:06;13.40;;;6.10;;
74967;SDS011;63523;51.880;12.630;2023-05-07T02:14:31;12.40;;;6.40;;
74967;SDS011;63523;51.880;12.630;2023-05-07T02:16:56;14.63;;;6.47;;
74967;SDS011;63523;51.880;12.630;2023-05-07T02:19:22;13.70;;;6.03;;
74967;SDS011;63523;51.880;12.630;2023-05-07T02:21:47;10.90;;;4.80;;
74967;SDS011;63523;51.880;12.630;2023-05-07T02:24:12;13.82;;;6.00;;
74967;SDS011;63523;51.880;12.630;2023-05-07T02:26:39;14.43;;;5.90;;
74967;SDS011;63523;51.880;12.630;2023-05-07T02:29:05;12.20;;;5.65;;
74967;SDS011;63523;51.880;12.630;2023-05-07T02:31:30;10.83;;;5.43;;
74967;SDS011;63523;51.880;12.630;2023-05-07T02:33:55;11.53;;;5.60;;
74967;SDS011;63523;51.880;12.630;2023-05-07T02:36:21;13.17;;;5.80;;
74967;SDS011;63523;51.880;12.630;2023-05-07T02:38:46;13.13;;;5.63;;
74967;SDS011;63523;51.880;12.630;2023-05-07T02:41:11;12.80;;;5.87;;
74967;SDS011;63523;51.880;12.630;2023-05-07T02:43:36;13.50;;;5.90;;
74967;SDS011;63523;51.880;12.630;2023-05-07T02:48:28;13.13;;;5.43;;
74967;SDS011;63523;51.880;12.630;2023-05-07T02:50:53;10.87;;;5.23;;
74967;SDS011;63523;51.880;12.630;2023-05-07T02:53:18;11.13;;;5.37;;
74967;SDS011;63523;51.880;12.630;2023-05-07T02:55:43;11.23;;;5.20;;
74967;SDS011;63523;51.880;12.630;2023-05-07T02:58:09;13.33;;;5.23;;
74967;SDS011;63523;51.880;12.630;2023-05-07T03:00:34;12.00;;;5.53;;
74967;SDS011;63523;51.880;12.630;2023-05-07T03:02:59;11.83;;;5.27;;
74967;SDS011;63523;51.880;12.630;2023-05-07T03:05:25;11.47;;;5.30;;
74967;SDS011;63523;51.880;12.630;2023-05-07T03:07:50;10.50;;;5.07;;
74967;SDS011;63523;51.880;12.630;2023-05-07T03:10:15;11.23;;;5.43;;
74967;SDS011;63523;51.880;12.630;2023-05-07T03:12:40;10.97;;;5.30;;
74967;SDS011;63523;51.880;12.630;2023-05-07T03:15:06;11.60;;;4.90;;
74967;SDS011;63523;51.880;12.630;2023-05-07T03:17:31;9.80;;;4.70;;
74967;SDS011;63523;51.880;12.630;2023-05-07T03:19:57;9.20;;;4.27;;
74967;SDS011;63523;51.880;12.630;2023-05-07T03:22:22;11.07;;;4.80;;
74967;SDS011;63523;51.880;12.630;2023-05-07T03:24:47;11.60;;;5.17;;
74967;SDS011;63523;51.880;12.630;2023-05-07T03:27:12;12.33;;;5.90;;
74967;SDS011;63523;51.880;12.630;2023-05-07T03:29:38;9.73;;;4.83;;
74967;SDS011;63523;51.880;12.630;2023-05-07T03:32:03;12.20;;;5.00;;
74967;SDS011;63523;51.880;12.630;2023-05-07T03:34:28;10.50;;;4.87;;
74967;SDS011;63523;51.880;12.630;2023-05-07T03:36:54;9.57;;;4.97;;
74967;SDS011;63523;51.880;12.630;2023-05-07T03:39:19;9.80;;;4.73;;
74967;SDS011;63523;51.880;12.630;2023-05-07T03:41:44;8.93;;;4.33;;
74967;SDS011;63523;51.880;12.630;2023-05-07T03:44:09;9.00;;;4.30;;
74967;SDS011;63523;51.880;12.630;2023-05-07T03:46:35;10.00;;;4.27;;
74967;SDS011;63523;51.880;12.630;2023-05-07T03:49:00;9.10;;;4.33;;
74967;SDS011;63523;51.880;12.630;2023-05-07T03:51:25;8.93;;;4.27;;
74967;SDS011;63523;51.880;12.630;2023-05-07T03:53:51;9.35;;;4.25;;
74967;SDS011;63523;51.880;12.630;2023-05-07T03:56:22;9.35;;;4.70;;
74967;SDS011;63523;51.880;12.630;2023-05-07T03:58:47;9.80;;;4.47;;
74967;SDS011;63523;51.880;12.630;2023-05-07T04:01:13;8.60;;;4.30;;
74967;SDS011;63523;51.880;12.630;2023-05-07T04:03:38;9.00;;;4.50;;
74967;SDS011;63523;51.880;12.630;2023-05-07T04:06:03;12.00;;;5.40;;
74967;SDS011;63523;51.880;12.630;2023-05-07T04:08:29;10.57;;;5.30;;
74967;SDS011;63523;51.880;12.630;2023-05-07T04:10:54;11.87;;;5.77;;
74967;SDS011;63523;51.880;12.630;2023-05-07T04:13:23;11.70;;;5.72;;
74967;SDS011;63523;51.880;12.630;2023-05-07T04:15:49;11.23;;;5.87;;
74967;SDS011;63523;51.880;12.630;2023-05-07T04:18:14;10.57;;;5.60;;
74967;SDS011;63523;51.880;12.630;2023-05-07T04:20:40;10.73;;;5.35;;
74967;SDS011;63523;51.880;12.630;2023-05-07T04:23:05;12.37;;;5.70;;
74967;SDS011;63523;51.880;12.630;2023-05-07T04:25:30;9.13;;;4.77;;
74967;SDS011;63523;51.880;12.630;2023-05-07T04:27:55;9.47;;;4.47;;
74967;SDS011;63523;51.880;12.630;2023-05-07T04:30:21;9.63;;;4.53;;
74967;SDS011;63523;51.880;12.630;2023-05-07T04:32:46;10.90;;;4.87;;
74967;SDS011;63523;51.880;12.630;2023-05-07T04:35:13;10.73;;;4.72;;
74967;SDS011;63523;51.880;12.630;2023-05-07T04:37:38;8.97;;;4.27;;
74967;SDS011;63523;51.880;12.630;2023-05-07T04:40:03;9.63;;;4.50;;
74967;SDS011;63523;51.880;12.630;2023-05-07T04:42:29;11.13;;;4.93;;
74967;SDS011;63523;51.880;12.630;2023-05-07T04:44:54;8.83;;;4.17;;
74967;SDS011;63523;51.880;12.630;2023-05-07T04:47:19;9.03;;;4.20;;
74967;SDS011;63523;51.880;12.630;2023-05-07T04:49:45;9.30;;;4.30;;
74967;SDS011;63523;51.880;12.630;2023-05-07T04:52:10;8.13;;;4.03;;
74967;SDS011;63523;51.880;12.630;2023-05-07T04:54:36;8.23;;;4.10;;
74967;SDS011;63523;51.880;12.630;2023-05-07T04:57:03;9.10;;;4.37;;
74967;SDS011;63523;51.880;12.630;2023-05-07T04:59:29;9.18;;;4.50;;
74967;SDS011;63523;51.880;12.630;2023-05-07T05:01:54;8.50;;;3.90;;
74967;SDS011;63523;51.880;12.630;2023-05-07T05:04:20;8.93;;;4.47;;
74967;SDS011;63523;51.880;12.630;2023-05-07T05:06:45;8.83;;;4.90;;
74967;SDS011;63523;51.880;12.630;2023-05-07T05:09:10;10.30;;;4.57;;
74967;SDS011;63523;51.880;12.630;2023-05-07T05:11:36;10.17;;;4.37;;
74967;SDS011;63523;51.880;12.630;2023-05-07T05:14:01;8.67;;;3.87;;
74967;SDS011;63523;51.880;12.630;2023-05-07T05:16:26;9.82;;;4.55;;
74967;SDS011;63523;51.880;12.630;2023-05-07T05:18:52;8.43;;;3.70;;
74967;SDS011;63523;51.880;12.630;2023-05-07T05:21:19;7.85;;;4.05;;
74967;SDS011;63523;51.880;12.630;2023-05-07T05:23:44;8.37;;;3.73;;
74967;SDS011;63523;51.880;12.630;2023-05-07T05:26:10;7.67;;;3.37;;
74967;SDS011;63523;51.880;12.630;2023-05-07T05:28:35;7.80;;;3.40;;
74967;SDS011;63523;51.880;12.630;2023-05-07T05:31:00;7.28;;;3.25;;
74967;SDS011;63523;51.880;12.630;2023-05-07T05:33:26;8.20;;;4.03;;
74967;SDS011;63523;51.880;12.630;2023-05-07T05:35:53;7.93;;;3.30;;
74967;SDS011;63523;51.880;12.630;2023-05-07T05:38:18;9.77;;;3.58;;
74967;SDS011;63523;51.880;12.630;2023-05-07T05:40:44;8.30;;;3.73;;
74967;SDS011;63523;51.880;12.630;2023-05-07T05:43:09;10.13;;;3.47;;
74967;SDS011;63523;51.880;12.630;2023-05-07T05:45:34;8.80;;;3.97;;
74967;SDS011;63523;51.880;12.630;2023-05-07T05:48:00;7.07;;;3.03;;
74967;SDS011;63523;51.880;12.630;2023-05-07T05:50:25;8.63;;;3.10;;
74967;SDS011;63523;51.880;12.630;2023-05-07T05:52:50;6.53;;;3.33;;
74967;SDS011;63523;51.880;12.630;2023-05-07T05:55:16;7.53;;;3.20;;
74967;SDS011;63523;51.880;12.630;2023-05-07T05:57:41;7.67;;;3.13;;
74967;SDS011;63523;51.880;12.630;2023-05-07T06:00:07;6.90;;;3.30;;
74967;SDS011;63523;51.880;12.630;2023-05-07T06:02:34;7.68;;;3.30;;
74967;SDS011;63523;51.880;12.630;2023-05-07T06:04:59;8.53;;;3.50;;
74967;SDS011;63523;51.880;12.630;2023-05-07T06:07:24;7.77;;;3.70;;
74967;SDS011;63523;51.880;12.630;2023-05-07T06:09:50;7.20;;;3.30;;
74967;SDS011;63523;51.880;12.630;2023-05-07T06:12:15;7.53;;;3.77;;
74967;SDS011;63523;51.880;12.630;2023-05-07T06:14:42;8.17;;;3.53;;
74967;SDS011;63523;51.880;12.630;2023-05-07T06:17:08;7.68;;;3.33;;
74967;SDS011;63523;51.880;12.630;2023-05-07T06:19:33;9.60;;;4.57;;
74967;SDS011;63523;51.880;12.630;2023-05-07T06:21:58;8.63;;;3.77;;
74967;SDS011;63523;51.880;12.630;2023-05-07T06:24:26;9.13;;;3.70;;
74967;SDS011;63523;51.880;12.630;2023-05-07T06:26:51;9.97;;;4.10;;
74967;SDS011;63523;51.880;12.630;2023-05-07T06:29:16;11.97;;;4.67;;
74967;SDS011;63523;51.880;12.630;2023-05-07T06:31:41;9.87;;;4.73;;
74967;SDS011;63523;51.880;12.630;2023-05-07T06:34:07;11.30;;;4.57;;
74967;SDS011;63523;51.880;12.630;2023-05-07T06:36:32;11.23;;;5.53;;
74967;SDS011;63523;51.880;12.630;2023-05-07T06:38:57;12.20;;;5.47;;
74967;SDS011;63523;51.880;12.630;2023-05-07T06:41:23;12.43;;;6.17;;
74967;SDS011;63523;51.880;12.630;2023-05-07T06:43:48;11.47;;;5.40;;
74967;SDS011;63523;51.880;12.630;2023-05-07T06:46:13;12.80;;;5.57;;
74967;SDS011;63523;51.880;12.630;2023-05-07T06:48:39;12.43;;;5.70;;
74967;SDS011;63523;51.880;12.630;2023-05-07T06:51:05;13.87;;;6.10;;
74967;SDS011;63523;51.880;12.630;2023-05-07T06:53:30;13.07;;;6.33;;
74967;SDS011;63523;51.880;12.630;2023-05-07T06:55:55;13.40;;;5.80;;
74967;SDS011;63523;51.880;12.630;2023-05-07T06:58:21;13.43;;;5.97;;
74967;SDS011;63523;51.880;12.630;2023-05-07T07:00:46;13.40;;;6.20;;
74967;SDS011;63523;51.880;12.630;2023-05-07T07:03:11;10.60;;;5.40;;
74967;SDS011;63523;51.880;12.630;2023-05-07T07:05:37;11.57;;;5.50;;
74967;SDS011;63523;51.880;12.630;2023-05-07T07:08:02;11.47;;;5.40;;
74967;SDS011;63523;51.880;12.630;2023-05-07T07:10:27;14.07;;;6.07;;
74967;SDS011;63523;51.880;12.630;2023-05-07T07:12:53;14.27;;;5.80;;
74967;SDS011;63523;51.880;12.630;2023-05-07T07:15:19;11.97;;;5.20;;
74967;SDS011;63523;51.880;12.630;2023-05-07T07:17:45;11.18;;;5.00;;
74967;SDS011;63523;51.880;12.630;2023-05-07T07:20:11;11.23;;;5.10;;
74967;SDS011;63523;51.880;12.630;2023-05-07T07:22:36;10.47;;;4.60;;
74967;SDS011;63523;51.880;12.630;2023-05-07T07:25:01;12.20;;;4.63;;
74967;SDS011;63523;51.880;12.630;2023-05-07T07:27:27;10.67;;;4.67;;
74967;SDS011;63523;51.880;12.630;2023-05-07T07:29:52;12.00;;;4.87;;
74967;SDS011;63523;51.880;12.630;2023-05-07T07:32:17;10.23;;;4.10;;
74967;SDS011;63523;51.880;12.630;2023-05-07T07:34:43;10.27;;;4.50;;
74967;SDS011;63523;51.880;12.630;2023-05-07T07:37:08;10.93;;;4.67;;
74967;SDS011;63523;51.880;12.630;2023-05-07T07:39:33;11.33;;;5.03;;
74967;SDS011;63523;51.880;12.630;2023-05-07T07:41:59;10.13;;;4.20;;
74967;SDS011;63523;51.880;12.630;2023-05-07T07:44:25;9.50;;;4.37;;
74967;SDS011;63523;51.880;12.630;2023-05-07T07:46:50;9.50;;;4.20;;
74967;SDS011;63523;51.880;12.630;2023-05-07T07:49:16;9.57;;;4.10;;
74967;SDS011;63523;51.880;12.630;2023-05-07T07:51:42;11.23;;;3.97;;
74967;SDS011;63523;51.880;12.630;2023-05-07T07:54:07;9.18;;;4.03;;
74967;SDS011;63523;51.880;12.630;2023-05-07T07:56:33;8.50;;;4.10;;
74967;SDS011;63523;51.880;12.630;2023-05-07T07:59:01;10.65;;;4.65;;
74967;SDS011;63523;51.880;12.630;2023-05-07T08:01:28;8.97;;;4.57;;
74967;SDS011;63523;51.880;12.630;2023-05-07T08:03:54;8.80;;;4.22;;
74967;SDS011;63523;51.880;12.630;2023-05-07T08:06:19;10.37;;;4.63;;
74967;SDS011;63523;51.880;12.630;2023-05-07T08:08:44;9.00;;;4.27;;
74967;SDS011;63523;51.880;12.630;2023-05-07T08:11:10;9.63;;;4.60;;
74967;SDS011;63523;51.880;12.630;2023-05-07T08:13:35;9.80;;;5.10;;
74967;SDS011;63523;51.880;12.630;2023-05-07T08:16:03;10.48;;;4.78;;
74967;SDS011;63523;51.880;12.630;2023-05-07T08:18:28;11.50;;;5.13;;
74967;SDS011;63523;51.880;12.630;2023-05-07T08:20:54;9.63;;;4.73;;
74967;SDS011;63523;51.880;12.630;2023-05-07T08:23:19;10.30;;;4.47;;
74967;SDS011;63523;51.880;12.630;2023-05-07T08:25:45;10.53;;;5.17;;
74967;SDS011;63523;51.880;12.630;2023-05-07T08:28:10;10.57;;;5.00;;
74967;SDS011;63523;51.880;12.630;2023-05-07T08:30:36;11.13;;;5.20;;
74967;SDS011;63523;51.880;12.630;2023-05-07T08:33:01;10.13;;;4.60;;
74967;SDS011;63523;51.880;12.630;2023-05-07T08:35:26;11.83;;;5.10;;
74967;SDS011;63523;51.880;12.630;2023-05-07T08:37:52;10.80;;;5.38;;
74967;SDS011;63523;51.880;12.630;2023-05-07T08:40:18;11.50;;;5.30;;
74967;SDS011;63523;51.880;12.630;2023-05-07T08:42:43;11.77;;;5.77;;
74967;SDS011;63523;51.880;12.630;2023-05-07T08:45:10;12.80;;;5.40;;
74967;SDS011;63523;51.880;12.630;2023-05-07T08:47:43;11.00;;;5.60;;
74967;SDS011;63523;51.880;12.630;2023-05-07T08:50:11;12.95;;;5.55;;
74967;SDS011;63523;51.880;12.630;2023-05-07T08:52:36;10.97;;;5.33;;
74967;SDS011;63523;51.880;12.630;2023-05-07T08:55:02;11.43;;;5.53;;
74967;SDS011;63523;51.880;12.630;2023-05-07T08:57:28;13.05;;;5.75;;
74967;SDS011;63523;51.880;12.630;2023-05-07T08:59:53;10.90;;;5.73;;
74967;SDS011;63523;51.880;12.630;2023-05-07T09:02:18;13.37;;;6.23;;
74967;SDS011;63523;51.880;12.630;2023-05-07T09:04:44;12.33;;;5.90;;
74967;SDS011;63523;51.880;12.630;2023-05-07T09:07:09;10.03;;;5.40;;
74967;SDS011;63523;51.880;12.630;2023-05-07T09:09:35;11.32;;;5.32;;
74967;SDS011;63523;51.880;12.630;2023-05-07T09:12:00;11.13;;;5.33;;
74967;SDS011;63523;51.880;12.630;2023-05-07T09:14:26;10.93;;;5.30;;
74967;SDS011;63523;51.880;12.630;2023-05-07T09:16:52;9.93;;;4.70;;
74967;SDS011;63523;51.880;12.630;2023-05-07T09:19:22;11.63;;;4.90;;
74967;SDS011;63523;51.880;12.630;2023-05-07T09:21:48;9.43;;;5.00;;
74967;SDS011;63523;51.880;12.630;2023-05-07T09:24:14;8.83;;;4.40;;
74967;SDS011;63523;51.880;12.630;2023-05-07T09:26:40;9.48;;;5.10;;
74967;SDS011;63523;51.880;12.630;2023-05-07T09:29:07;9.70;;;4.60;;
74967;SDS011;63523;51.880;12.630;2023-05-07T09:31:36;9.30;;;4.55;;
74967;SDS011;63523;51.880;12.630;2023-05-07T09:34:04;8.27;;;4.20;;
74967;SDS011;63523;51.880;12.630;2023-05-07T09:36:29;9.73;;;3.92;;
74967;SDS011;63523;51.880;12.630;2023-05-07T09:38:58;8.18;;;3.92;;
74967;SDS011;63523;51.880;12.630;2023-05-07T09:41:24;7.80;;;3.27;;
74967;SDS011;63523;51.880;12.630;2023-05-07T09:43:54;9.25;;;3.22;;
74967;SDS011;63523;51.880;12.630;2023-05-07T09:46:19;7.60;;;3.78;;
74967;SDS011;63523;51.880;12.630;2023-05-07T09:48:57;7.32;;;3.42;;
74967;SDS011;63523;51.880;12.630;2023-05-07T09:51:30;7.65;;;3.50;;
74967;SDS011;63523;51.880;12.630;2023-05-07T09:54:03;8.17;;;4.10;;
74967;SDS011;63523;51.880;12.630;2023-05-07T09:56:30;7.60;;;3.60;;
74967;SDS011;63523;51.880;12.630;2023-05-07T09:58:56;9.02;;;4.07;;
74967;SDS011;63523;51.880;12.630;2023-05-07T10:01:24;9.13;;;4.43;;
74967;SDS011;63523;51.880;12.630;2023-05-07T10:03:50;10.65;;;4.20;;
74967;SDS011;63523;51.880;12.630;2023-05-07T10:06:16;8.00;;;4.10;;
74967;SDS011;63523;51.880;12.630;2023-05-07T10:08:42;9.35;;;4.50;;
74967;SDS011;63523;51.880;12.630;2023-05-07T10:11:08;8.77;;;4.60;;
74967;SDS011;63523;51.880;12.630;2023-05-07T10:13:34;8.53;;;4.20;;
74967;SDS011;63523;51.880;12.630;2023-05-07T10:16:06;9.20;;;3.97;;
74967;SDS011;63523;51.880;12.630;2023-05-07T10:18:31;8.73;;;4.20;;
74967;SDS011;63523;51.880;12.630;2023-05-07T10:23:47;9.18;;;4.45;;
74967;SDS011;63523;51.880;12.630;2023-05-07T10:26:15;8.23;;;4.50;;
74967;SDS011;63523;51.880;12.630;2023-05-07T10:28:44;8.73;;;4.28;;
74967;SDS011;63523;51.880;12.630;2023-05-07T10:33:57;10.30;;;4.30;;
74967;SDS011;63523;51.880;12.630;2023-05-07T10:36:23;8.75;;;4.60;;
74967;SDS011;63523;51.880;12.630;2023-05-07T10:38:50;8.57;;;4.57;;
74967;SDS011;63523;51.880;12.630;2023-05-07T10:41:15;9.07;;;5.03;;
74967;SDS011;63523;51.880;12.630;2023-05-07T10:43:44;8.30;;;4.80;;
74967;SDS011;63523;51.880;12.630;2023-05-07T10:46:11;9.50;;;4.80;;
74967;SDS011;63523;51.880;12.630;2023-05-07T10:51:26;11.15;;;5.05;;
74967;SDS011;63523;51.880;12.630;2023-05-07T10:56:37;9.40;;;4.57;;
74967;SDS011;63523;51.880;12.630;2023-05-07T11:01:55;9.40;;;5.60;;
74967;SDS011;63523;51.880;12.630;2023-05-07T11:04:28;11.32;;;5.30;;
74967;SDS011;63523;51.880;12.630;2023-05-07T11:15:10;8.75;;;4.63;;
74967;SDS011;63523;51.880;12.630;2023-05-07T11:17:52;8.52;;;4.40;;
74967;SDS011;63523;51.880;12.630;2023-05-07T11:20:18;7.97;;;3.83;;
74967;SDS011;63523;51.880;12.630;2023-05-07T11:22:44;8.37;;;4.00;;
74967;SDS011;63523;51.880;12.630;2023-05-07T11:25:09;6.83;;;3.40;;
74967;SDS011;63523;51.880;12.630;2023-05-07T11:27:34;7.73;;;3.67;;
74967;SDS011;63523;51.880;12.630;2023-05-07T11:30:00;8.15;;;4.00;;
74967;SDS011;63523;51.880;12.630;2023-05-07T11:32:29;9.13;;;4.15;;
74967;SDS011;63523;51.880;12.630;2023-05-07T11:34:56;7.50;;;3.70;;
74967;SDS011;63523;51.880;12.630;2023-05-07T11:37:26;7.88;;;3.80;;
74967;SDS011;63523;51.880;12.630;2023-05-07T11:40:02;8.75;;;3.63;;
74967;SDS011;63523;51.880;12.630;2023-05-07T11:42:29;8.75;;;3.83;;
74967;SDS011;63523;51.880;12.630;2023-05-07T11:45:05;7.00;;;3.10;;
74967;SDS011;63523;51.880;12.630;2023-05-07T11:47:31;7.87;;;3.40;;
74967;SDS011;63523;51.880;12.630;2023-05-07T11:50:01;7.65;;;3.40;;
74967;SDS011;63523;51.880;12.630;2023-05-07T11:52:31;6.93;;;3.30;;
74967;SDS011;63523;51.880;12.630;2023-05-07T11:54:57;8.18;;;3.70;;
74967;SDS011;63523;51.880;12.630;2023-05-07T11:57:25;7.50;;;3.50;;
74967;SDS011;63523;51.880;12.630;2023-05-07T11:59:54;6.33;;;3.57;;
74967;SDS011;63523;51.880;12.630;2023-05-07T12:02:20;7.72;;;3.10;;
74967;SDS011;63523;51.880;12.630;2023-05-07T12:04:45;7.20;;;3.43;;
74967;SDS011;63523;51.880;12.630;2023-05-07T12:07:14;6.10;;;2.90;;
74967;SDS011;63523;51.880;12.630;2023-05-07T12:09:40;7.10;;;3.83;;
74967;SDS011;63523;51.880;12.630;2023-05-07T12:12:06;5.85;;;2.70;;
74967;SDS011;63523;51.880;12.630;2023-05-07T12:14:32;7.55;;;2.63;;
74967;SDS011;63523;51.880;12.630;2023-05-07T12:16:57;6.40;;;2.80;;
74967;SDS011;63523;51.880;12.630;2023-05-07T12:19:27;6.27;;;2.73;;
74967;SDS011;63523;51.880;12.630;2023-05-07T12:21:53;6.40;;;2.75;;
74967;SDS011;63523;51.880;12.630;2023-05-07T12:24:18;6.40;;;2.80;;
74967;SDS011;63523;51.880;12.630;2023-05-07T12:26:43;6.25;;;2.60;;
74967;SDS011;63523;51.880;12.630;2023-05-07T12:29:09;5.80;;;2.43;;
74967;SDS011;63523;51.880;12.630;2023-05-07T12:31:34;5.80;;;2.40;;
74967;SDS011;63523;51.880;12.630;2023-05-07T12:33:59;5.37;;;2.60;;
74967;SDS011;63523;51.880;12.630;2023-05-07T12:36:25;4.73;;;2.10;;
74967;SDS011;63523;51.880;12.630;2023-05-07T12:38:50;7.30;;;2.50;;
74967;SDS011;63523;51.880;12.630;2023-05-07T12:41:16;8.40;;;3.00;;
74967;SDS011;63523;51.880;12.630;2023-05-07T12:43:44;6.43;;;3.17;;
74967;SDS011;63523;51.880;12.630;2023-05-07T12:46:10;6.85;;;2.30;;
74967;SDS011;63523;51.880;12.630;2023-05-07T12:48:36;5.03;;;2.30;;
74967;SDS011;63523;51.880;12.630;2023-05-07T12:51:02;4.75;;;1.90;;
74967;SDS011;63523;51.880;12.630;2023-05-07T12:53:28;5.47;;;2.17;;
74967;SDS011;63523;51.880;12.630;2023-05-07T12:55:56;5.15;;;2.00;;
74967;SDS011;63523;51.880;12.630;2023-05-07T12:58:24;8.80;;;2.43;;
74967;SDS011;63523;51.880;12.630;2023-05-07T13:00:52;4.65;;;1.90;;
74967;SDS011;63523;51.880;12.630;2023-05-07T13:03:25;7.90;;;2.10;;
74967;SDS011;63523;51.880;12.630;2023-05-07T13:05:52;5.00;;;2.20;;
74967;SDS011;63523;51.880;12.630;2023-05-07T13:08:34;5.47;;;2.17;;
74967;SDS011;63523;51.880;12.630;2023-05-07T13:11:06;4.85;;;2.28;;
74967;SDS011;63523;51.880;12.630;2023-05-07T13:13:33;5.15;;;2.30;;
74967;SDS011;63523;51.880;12.630;2023-05-07T13:16:00;5.15;;;2.25;;
74967;SDS011;63523;51.880;12.630;2023-05-07T13:18:29;5.43;;;2.50;;
74967;SDS011;63523;51.880;12.630;2023-05-07T13:20:55;7.47;;;2.17;;
74967;SDS011;63523;51.880;12.630;2023-05-07T13:23:21;6.43;;;2.10;;
74967;SDS011;63523;51.880;12.630;2023-05-07T13:25:46;4.35;;;1.90;;
74967;SDS011;63523;51.880;12.630;2023-05-07T13:28:12;4.93;;;2.03;;
74967;SDS011;63523;51.880;12.630;2023-05-07T13:30:37;5.83;;;2.03;;
74967;SDS011;63523;51.880;12.630;2023-05-07T13:33:02;5.40;;;1.73;;
74967;SDS011;63523;51.880;12.630;2023-05-07T13:35:28;4.77;;;1.87;;
74967;SDS011;63523;51.880;12.630;2023-05-07T13:37:54;5.33;;;1.93;;
74967;SDS011;63523;51.880;12.630;2023-05-07T13:40:19;4.10;;;1.75;;
74967;SDS011;63523;51.880;12.630;2023-05-07T13:42:45;4.20;;;1.70;;
74967;SDS011;63523;51.880;12.630;2023-05-07T13:45:11;4.27;;;1.80;;
74967;SDS011;63523;51.880;12.630;2023-05-07T13:47:38;3.73;;;1.70;;
74967;SDS011;63523;51.880;12.630;2023-05-07T13:50:04;4.93;;;1.60;;
74967;SDS011;63523;51.880;12.630;2023-05-07T13:52:30;5.00;;;1.80;;
74967;SDS011;63523;51.880;12.630;2023-05-07T13:54:55;4.23;;;1.80;;
74967;SDS011;63523;51.880;12.630;2023-05-07T13:57:21;5.33;;;2.23;;
74967;SDS011;63523;51.880;12.630;2023-05-07T13:59:46;4.87;;;2.40;;
74967;SDS011;63523;51.880;12.630;2023-05-07T14:02:12;4.20;;;1.90;;
74967;SDS011;63523;51.880;12.630;2023-05-07T14:04:37;4.30;;;1.80;;
74967;SDS011;63523;51.880;12.630;2023-05-07T14:07:02;4.32;;;1.95;;
74967;SDS011;63523;51.880;12.630;2023-05-07T14:09:27;6.53;;;2.20;;
74967;SDS011;63523;51.880;12.630;2023-05-07T14:11:53;4.20;;;1.87;;
74967;SDS011;63523;51.880;12.630;2023-05-07T14:14:18;4.70;;;1.83;;
74967;SDS011;63523;51.880;12.630;2023-05-07T14:16:44;7.00;;;2.27;;
74967;SDS011;63523;51.880;12.630;2023-05-07T14:19:10;4.30;;;1.83;;
74967;SDS011;63523;51.880;12.630;2023-05-07T14:21:36;5.80;;;2.70;;
74967;SDS011;63523;51.880;12.630;2023-05-07T14:24:01;5.17;;;2.50;;
74967;SDS011;63523;51.880;12.630;2023-05-07T14:26:26;4.80;;;2.30;;
74967;SDS011;63523;51.880;12.630;2023-05-07T14:28:52;5.83;;;2.50;;
74967;SDS011;63523;51.880;12.630;2023-05-07T14:31:19;5.35;;;2.50;;
74967;SDS011;63523;51.880;12.630;2023-05-07T14:33:45;5.57;;;2.10;;
74967;SDS011;63523;51.880;12.630;2023-05-07T14:36:10;4.80;;;2.00;;
74967;SDS011;63523;51.880;12.630;2023-05-07T14:38:35;5.53;;;2.50;;
74967;SDS011;63523;51.880;12.630;2023-05-07T14:41:01;5.43;;;2.50;;
74967;SDS011;63523;51.880;12.630;2023-05-07T14:43:26;5.13;;;2.17;;
74967;SDS011;63523;51.880;12.630;2023-05-07T14:45:51;5.47;;;2.23;;